sensor_id;sensor_type;location;lat;lon;timestamp;P1;durP1;ratioP1;P2;durP2;ratioP2
7247;SDS011;3665;51.034;13.642;2022-10-16T00:06:38;3.47;;;3.17;;
7247;SDS011;3665;51.034;13.642;2022-10-16T00:12:35;3.67;;;3.37;;
7247;SDS011;3665;51.034;13.642;2022-10-16T00:17:34;3.47;;;3.17;;
7247;SDS011;3665;51.034;13.642;2022-10-16T00:23:27;3.60;;;3.30;;
7247;SDS011;3665;51.034;13.642;2022-10-16T00:28:34;3.73;;;3.17;;
7247;SDS011;3665;51.034;13.642;2022-10-16T00:40:47;3.00;;;2.80;;
7247;SDS011;3665;51.034;13.642;2022-10-16T00:45:50;3.67;;;3.03;;
7247;SDS011;3665;51.034;13.642;2022-10-16T00:51:13;2.77;;;2.57;;
7247;SDS011;3665;51.034;13.642;2022-10-16T00:57:04;2.87;;;2.67;;
7247;SDS011;3665;51.034;13.642;2022-10-16T01:02:55;3.03;;;2.37;;
7247;SDS011;3665;51.034;13.642;2022-10-16T01:08:02;2.60;;;2.40;;
7247;SDS011;3665;51.034;13.642;2022-10-16T01:13:41;2.90;;;2.60;;
7247;SDS011;3665;51.034;13.642;2022-10-16T01:18:57;3.03;;;2.80;;
7247;SDS011;3665;51.034;13.642;2022-10-16T01:23:59;3.03;;;2.83;;
7247;SDS011;3665;51.034;13.642;2022-10-16T01:29:03;9.60;;;3.37;;
7247;SDS011;3665;51.034;13.642;2022-10-16T01:34:06;2.90;;;2.70;;
7247;SDS011;3665;51.034;13.642;2022-10-16T01:39:14;2.93;;;2.57;;
7247;SDS011;3665;51.034;13.642;2022-10-16T01:49:34;2.93;;;2.73;;
7247;SDS011;3665;51.034;13.642;2022-10-16T01:54:43;2.37;;;2.10;;
7247;SDS011;3665;51.034;13.642;2022-10-16T01:59:43;2.17;;;2.00;;
7247;SDS011;3665;51.034;13.642;2022-10-16T02:04:32;2.43;;;2.23;;
7247;SDS011;3665;51.034;13.642;2022-10-16T02:09:33;2.83;;;2.63;;
7247;SDS011;3665;51.034;13.642;2022-10-16T02:14:21;4.30;;;3.20;;
7247;SDS011;3665;51.034;13.642;2022-10-16T02:19:17;4.10;;;2.93;;
7247;SDS011;3665;51.034;13.642;2022-10-16T02:24:23;3.97;;;3.47;;
7247;SDS011;3665;51.034;13.642;2022-10-16T02:29:40;3.77;;;3.47;;
7247;SDS011;3665;51.034;13.642;2022-10-16T02:35:02;2.43;;;2.23;;
7247;SDS011;3665;51.034;13.642;2022-10-16T02:40:13;3.40;;;2.13;;
7247;SDS011;3665;51.034;13.642;2022-10-16T02:50:36;2.50;;;2.30;;
7247;SDS011;3665;51.034;13.642;2022-10-16T02:55:43;2.80;;;2.60;;
7247;SDS011;3665;51.034;13.642;2022-10-16T03:00:28;2.97;;;2.47;;
7247;SDS011;3665;51.034;13.642;2022-10-16T03:05:16;4.33;;;2.40;;
7247;SDS011;3665;51.034;13.642;2022-10-16T03:15:44;4.03;;;2.47;;
7247;SDS011;3665;51.034;13.642;2022-10-16T03:20:45;2.20;;;2.10;;
7247;SDS011;3665;51.034;13.642;2022-10-16T03:25:32;2.90;;;2.30;;
7247;SDS011;3665;51.034;13.642;2022-10-16T03:30:20;2.40;;;2.20;;
7247;SDS011;3665;51.034;13.642;2022-10-16T03:46:12;2.33;;;2.23;;
7247;SDS011;3665;51.034;13.642;2022-10-16T03:57:02;4.07;;;2.27;;
7247;SDS011;3665;51.034;13.642;2022-10-16T04:02:54;2.80;;;2.23;;
7247;SDS011;3665;51.034;13.642;2022-10-16T04:07:42;2.10;;;2.00;;
7247;SDS011;3665;51.034;13.642;2022-10-16T04:12:29;2.10;;;1.90;;
7247;SDS011;3665;51.034;13.642;2022-10-16T04:17:16;2.30;;;1.97;;
7247;SDS011;3665;51.034;13.642;2022-10-16T04:22:06;1.70;;;1.53;;
7247;SDS011;3665;51.034;13.642;2022-10-16T04:26:55;2.17;;;1.97;;
7247;SDS011;3665;51.034;13.642;2022-10-16T04:31:43;1.80;;;1.70;;
7247;SDS011;3665;51.034;13.642;2022-10-16T04:36:29;1.60;;;1.50;;
7247;SDS011;3665;51.034;13.642;2022-10-16T04:41:16;2.00;;;1.80;;
7247;SDS011;3665;51.034;13.642;2022-10-16T04:57:39;1.70;;;1.60;;
7247;SDS011;3665;51.034;13.642;2022-10-16T05:02:41;1.70;;;1.60;;
7247;SDS011;3665;51.034;13.642;2022-10-16T05:07:25;1.73;;;1.60;;
7247;SDS011;3665;51.034;13.642;2022-10-16T05:12:12;1.70;;;1.60;;
7247;SDS011;3665;51.034;13.642;2022-10-16T05:16:59;2.23;;;1.87;;
7247;SDS011;3665;51.034;13.642;2022-10-16T05:21:54;2.03;;;1.40;;
7247;SDS011;3665;51.034;13.642;2022-10-16T05:26:42;1.60;;;1.50;;
7247;SDS011;3665;51.034;13.642;2022-10-16T05:31:56;1.47;;;1.37;;
7247;SDS011;3665;51.034;13.642;2022-10-16T05:42:20;1.70;;;1.60;;
7247;SDS011;3665;51.034;13.642;2022-10-16T05:47:24;2.13;;;1.60;;
7247;SDS011;3665;51.034;13.642;2022-10-16T05:52:12;2.00;;;1.70;;
7247;SDS011;3665;51.034;13.642;2022-10-16T06:02:43;2.73;;;1.63;;
7247;SDS011;3665;51.034;13.642;2022-10-16T06:07:58;1.63;;;1.53;;
7247;SDS011;3665;51.034;13.642;2022-10-16T06:13:37;2.20;;;2.00;;
7247;SDS011;3665;51.034;13.642;2022-10-16T06:18:53;3.37;;;2.37;;
7247;SDS011;3665;51.034;13.642;2022-10-16T06:25:09;4.87;;;4.47;;
7247;SDS011;3665;51.034;13.642;2022-10-16T06:41:34;9.90;;;9.07;;
7247;SDS011;3665;51.034;13.642;2022-10-16T06:46:53;7.33;;;6.60;;
7247;SDS011;3665;51.034;13.642;2022-10-16T06:51:50;4.33;;;4.03;;
7247;SDS011;3665;51.034;13.642;2022-10-16T06:57:38;2.60;;;2.40;;
7247;SDS011;3665;51.034;13.642;2022-10-16T07:03:23;6.67;;;5.17;;
7247;SDS011;3665;51.034;13.642;2022-10-16T07:13:33;3.47;;;3.27;;
7247;SDS011;3665;51.034;13.642;2022-10-16T07:19:08;1.47;;;0.60;;
7247;SDS011;3665;51.034;13.642;2022-10-16T07:24:54;1.17;;;0.83;;
7247;SDS011;3665;51.034;13.642;2022-10-16T07:29:57;1.10;;;1.03;;
7247;SDS011;3665;51.034;13.642;2022-10-16T07:41:19;0.80;;;0.80;;
7247;SDS011;3665;51.034;13.642;2022-10-16T07:52:32;0.50;;;0.50;;
7247;SDS011;3665;51.034;13.642;2022-10-16T07:57:49;0.50;;;0.50;;
7247;SDS011;3665;51.034;13.642;2022-10-16T08:02:42;1.93;;;1.53;;
7247;SDS011;3665;51.034;13.642;2022-10-16T08:08:02;0.57;;;0.47;;
7247;SDS011;3665;51.034;13.642;2022-10-16T08:13:25;2.27;;;0.67;;
7247;SDS011;3665;51.034;13.642;2022-10-16T08:18:52;0.93;;;0.73;;
7247;SDS011;3665;51.034;13.642;2022-10-16T08:24:29;0.97;;;0.97;;
7247;SDS011;3665;51.034;13.642;2022-10-16T08:29:53;1.00;;;0.90;;
7247;SDS011;3665;51.034;13.642;2022-10-16T08:35:42;0.90;;;0.90;;
7247;SDS011;3665;51.034;13.642;2022-10-16T08:41:54;0.77;;;0.77;;
7247;SDS011;3665;51.034;13.642;2022-10-16T08:48:00;1.17;;;0.77;;
7247;SDS011;3665;51.034;13.642;2022-10-16T08:53:19;0.90;;;0.90;;
7247;SDS011;3665;51.034;13.642;2022-10-16T09:04:14;2.20;;;0.90;;
7247;SDS011;3665;51.034;13.642;2022-10-16T09:09:54;1.30;;;0.70;;
7247;SDS011;3665;51.034;13.642;2022-10-16T09:15:42;1.30;;;0.70;;
7247;SDS011;3665;51.034;13.642;2022-10-16T09:21:51;0.53;;;0.50;;
7247;SDS011;3665;51.034;13.642;2022-10-16T09:27:56;0.73;;;0.50;;
7247;SDS011;3665;51.034;13.642;2022-10-16T09:33:52;0.70;;;0.70;;
7247;SDS011;3665;51.034;13.642;2022-10-16T09:38:43;0.60;;;0.60;;
7247;SDS011;3665;51.034;13.642;2022-10-16T09:43:57;0.90;;;0.60;;
7247;SDS011;3665;51.034;13.642;2022-10-16T09:49:04;0.93;;;0.47;;
7247;SDS011;3665;51.034;13.642;2022-10-16T09:54:53;0.50;;;0.47;;
7247;SDS011;3665;51.034;13.642;2022-10-16T10:00:44;1.10;;;0.40;;
7247;SDS011;3665;51.034;13.642;2022-10-16T10:12:17;0.60;;;0.60;;
7247;SDS011;3665;51.034;13.642;2022-10-16T10:17:44;0.67;;;0.40;;
7247;SDS011;3665;51.034;13.642;2022-10-16T10:22:57;0.83;;;0.43;;
7247;SDS011;3665;51.034;13.642;2022-10-16T10:27:50;1.60;;;0.60;;
7247;SDS011;3665;51.034;13.642;2022-10-16T10:33:26;1.13;;;0.40;;
7247;SDS011;3665;51.034;13.642;2022-10-16T10:38:39;0.70;;;0.57;;
7247;SDS011;3665;51.034;13.642;2022-10-16T10:43:50;1.40;;;0.50;;
7247;SDS011;3665;51.034;13.642;2022-10-16T10:55:27;1.30;;;0.40;;
7247;SDS011;3665;51.034;13.642;2022-10-16T11:00:34;0.73;;;0.30;;
7247;SDS011;3665;51.034;13.642;2022-10-16T11:05:38;0.50;;;0.30;;
7247;SDS011;3665;51.034;13.642;2022-10-16T11:11:00;1.13;;;0.43;;
7247;SDS011;3665;51.034;13.642;2022-10-16T11:16:03;0.77;;;0.50;;
7247;SDS011;3665;51.034;13.642;2022-10-16T11:21:54;0.50;;;0.50;;
7247;SDS011;3665;51.034;13.642;2022-10-16T11:27:26;1.60;;;0.40;;
7247;SDS011;3665;51.034;13.642;2022-10-16T11:32:35;1.60;;;0.60;;
7247;SDS011;3665;51.034;13.642;2022-10-16T11:37:49;2.10;;;0.50;;
7247;SDS011;3665;51.034;13.642;2022-10-16T11:42:43;1.43;;;0.50;;
7247;SDS011;3665;51.034;13.642;2022-10-16T11:47:44;0.40;;;0.40;;
7247;SDS011;3665;51.034;13.642;2022-10-16T11:52:48;0.80;;;0.40;;
7247;SDS011;3665;51.034;13.642;2022-10-16T11:57:54;0.50;;;0.50;;
7247;SDS011;3665;51.034;13.642;2022-10-16T12:03:15;0.50;;;0.50;;
7247;SDS011;3665;51.034;13.642;2022-10-16T12:08:12;0.47;;;0.40;;
7247;SDS011;3665;51.034;13.642;2022-10-16T12:13:00;0.50;;;0.50;;
7247;SDS011;3665;51.034;13.642;2022-10-16T12:17:50;0.87;;;0.50;;
7247;SDS011;3665;51.034;13.642;2022-10-16T12:23:26;0.37;;;0.37;;
7247;SDS011;3665;51.034;13.642;2022-10-16T12:28:25;1.13;;;0.60;;
7247;SDS011;3665;51.034;13.642;2022-10-16T12:33:19;0.73;;;0.60;;
7247;SDS011;3665;51.034;13.642;2022-10-16T12:38:56;0.60;;;0.33;;
7247;SDS011;3665;51.034;13.642;2022-10-16T12:44:31;1.50;;;0.70;;
7247;SDS011;3665;51.034;13.642;2022-10-16T12:49:37;0.47;;;0.47;;
7247;SDS011;3665;51.034;13.642;2022-10-16T12:55:15;0.73;;;0.50;;
7247;SDS011;3665;51.034;13.642;2022-10-16T13:01:24;0.50;;;0.50;;
7247;SDS011;3665;51.034;13.642;2022-10-16T13:06:42;0.73;;;0.60;;
7247;SDS011;3665;51.034;13.642;2022-10-16T13:12:36;0.70;;;0.50;;
7247;SDS011;3665;51.034;13.642;2022-10-16T13:18:21;0.60;;;0.57;;
7247;SDS011;3665;51.034;13.642;2022-10-16T13:23:43;0.60;;;0.60;;
7247;SDS011;3665;51.034;13.642;2022-10-16T13:28:53;0.53;;;0.53;;
7247;SDS011;3665;51.034;13.642;2022-10-16T13:34:22;1.00;;;0.57;;
7247;SDS011;3665;51.034;13.642;2022-10-16T13:39:42;2.27;;;0.60;;
7247;SDS011;3665;51.034;13.642;2022-10-16T13:45:17;1.20;;;0.50;;
7247;SDS011;3665;51.034;13.642;2022-10-16T13:50:41;2.40;;;0.70;;
7247;SDS011;3665;51.034;13.642;2022-10-16T13:56:38;2.03;;;0.63;;
7247;SDS011;3665;51.034;13.642;2022-10-16T14:07:47;0.60;;;0.60;;
7247;SDS011;3665;51.034;13.642;2022-10-16T14:13:38;0.83;;;0.70;;
7247;SDS011;3665;51.034;13.642;2022-10-16T14:18:58;0.60;;;0.60;;
7247;SDS011;3665;51.034;13.642;2022-10-16T14:24:32;0.43;;;0.43;;
7247;SDS011;3665;51.034;13.642;2022-10-16T14:29:20;0.57;;;0.50;;
7247;SDS011;3665;51.034;13.642;2022-10-16T14:40:18;1.50;;;0.50;;
7247;SDS011;3665;51.034;13.642;2022-10-16T14:45:34;1.27;;;0.60;;
7247;SDS011;3665;51.034;13.642;2022-10-16T14:50:45;0.80;;;0.63;;
7247;SDS011;3665;51.034;13.642;2022-10-16T14:56:23;3.17;;;0.97;;
7247;SDS011;3665;51.034;13.642;2022-10-16T15:06:44;1.03;;;0.60;;
7247;SDS011;3665;51.034;13.642;2022-10-16T15:12:29;1.13;;;0.57;;
7247;SDS011;3665;51.034;13.642;2022-10-16T15:17:36;0.50;;;0.50;;
7247;SDS011;3665;51.034;13.642;2022-10-16T15:22:42;1.27;;;0.90;;
7247;SDS011;3665;51.034;13.642;2022-10-16T15:27:45;0.70;;;0.70;;
7247;SDS011;3665;51.034;13.642;2022-10-16T15:32:48;1.23;;;0.70;;
7247;SDS011;3665;51.034;13.642;2022-10-16T15:37:58;0.63;;;0.50;;
7247;SDS011;3665;51.034;13.642;2022-10-16T15:43:24;1.67;;;0.93;;
7247;SDS011;3665;51.034;13.642;2022-10-16T15:53:37;0.80;;;0.80;;
7247;SDS011;3665;51.034;13.642;2022-10-16T15:58:38;1.33;;;0.70;;
7247;SDS011;3665;51.034;13.642;2022-10-16T16:04:05;0.67;;;0.67;;
7247;SDS011;3665;51.034;13.642;2022-10-16T16:15:21;1.73;;;1.00;;
7247;SDS011;3665;51.034;13.642;2022-10-16T16:20:13;1.77;;;1.20;;
7247;SDS011;3665;51.034;13.642;2022-10-16T16:26:06;5.77;;;1.30;;
7247;SDS011;3665;51.034;13.642;2022-10-16T16:30:59;2.60;;;1.37;;
7247;SDS011;3665;51.034;13.642;2022-10-16T16:36:15;5.63;;;1.60;;
7247;SDS011;3665;51.034;13.642;2022-10-16T16:41:56;1.87;;;1.70;;
7247;SDS011;3665;51.034;13.642;2022-10-16T16:47:12;2.47;;;2.20;;
7247;SDS011;3665;51.034;13.642;2022-10-16T16:52:44;2.90;;;2.20;;
7247;SDS011;3665;51.034;13.642;2022-10-16T16:57:38;1.77;;;1.67;;
7247;SDS011;3665;51.034;13.642;2022-10-16T17:02:22;1.50;;;1.40;;
7247;SDS011;3665;51.034;13.642;2022-10-16T17:07:24;2.57;;;1.50;;
7247;SDS011;3665;51.034;13.642;2022-10-16T17:12:28;2.70;;;1.70;;
7247;SDS011;3665;51.034;13.642;2022-10-16T17:17:23;1.80;;;1.50;;
7247;SDS011;3665;51.034;13.642;2022-10-16T17:22:20;1.70;;;1.50;;
7247;SDS011;3665;51.034;13.642;2022-10-16T17:27:09;2.17;;;1.70;;
7247;SDS011;3665;51.034;13.642;2022-10-16T17:31:58;2.80;;;2.00;;
7247;SDS011;3665;51.034;13.642;2022-10-16T17:36:45;3.70;;;2.60;;
7247;SDS011;3665;51.034;13.642;2022-10-16T17:41:32;2.73;;;2.40;;
7247;SDS011;3665;51.034;13.642;2022-10-16T17:46:21;3.70;;;2.70;;
7247;SDS011;3665;51.034;13.642;2022-10-16T17:51:09;3.80;;;2.43;;
7247;SDS011;3665;51.034;13.642;2022-10-16T17:56:30;2.97;;;2.73;;
7247;SDS011;3665;51.034;13.642;2022-10-16T18:01:19;4.20;;;2.93;;
7247;SDS011;3665;51.034;13.642;2022-10-16T18:06:03;5.20;;;3.50;;
7247;SDS011;3665;51.034;13.642;2022-10-16T18:10:57;4.07;;;3.53;;
7247;SDS011;3665;51.034;13.642;2022-10-16T18:15:42;6.43;;;5.93;;
7247;SDS011;3665;51.034;13.642;2022-10-16T18:20:29;4.83;;;4.33;;
7247;SDS011;3665;51.034;13.642;2022-10-16T18:25:16;3.97;;;3.60;;
7247;SDS011;3665;51.034;13.642;2022-10-16T18:30:09;3.80;;;3.30;;
7247;SDS011;3665;51.034;13.642;2022-10-16T18:35:10;5.47;;;3.00;;
7247;SDS011;3665;51.034;13.642;2022-10-16T18:39:57;4.07;;;2.80;;
7247;SDS011;3665;51.034;13.642;2022-10-16T18:44:44;2.83;;;2.63;;
7247;SDS011;3665;51.034;13.642;2022-10-16T18:49:34;3.10;;;2.30;;
7247;SDS011;3665;51.034;13.642;2022-10-16T18:54:23;3.47;;;2.50;;
7247;SDS011;3665;51.034;13.642;2022-10-16T18:59:08;2.50;;;2.30;;
7247;SDS011;3665;51.034;13.642;2022-10-16T19:03:57;3.33;;;1.90;;
7247;SDS011;3665;51.034;13.642;2022-10-16T19:08:46;2.73;;;2.20;;
7247;SDS011;3665;51.034;13.642;2022-10-16T19:13:34;2.40;;;2.20;;
7247;SDS011;3665;51.034;13.642;2022-10-16T19:18:20;3.23;;;2.23;;
7247;SDS011;3665;51.034;13.642;2022-10-16T19:23:10;2.77;;;2.57;;
7247;SDS011;3665;51.034;13.642;2022-10-16T19:27:56;2.57;;;2.30;;
7247;SDS011;3665;51.034;13.642;2022-10-16T19:32:53;3.00;;;2.20;;
7247;SDS011;3665;51.034;13.642;2022-10-16T19:38:08;4.10;;;2.17;;
7247;SDS011;3665;51.034;13.642;2022-10-16T19:42:52;3.00;;;2.00;;
7247;SDS011;3665;51.034;13.642;2022-10-16T19:53:37;2.80;;;2.23;;
7247;SDS011;3665;51.034;13.642;2022-10-16T19:58:54;1.90;;;1.80;;
7247;SDS011;3665;51.034;13.642;2022-10-16T20:03:41;3.23;;;2.63;;
7247;SDS011;3665;51.034;13.642;2022-10-16T20:08:34;3.60;;;2.90;;
7247;SDS011;3665;51.034;13.642;2022-10-16T20:14:39;4.03;;;2.63;;
7247;SDS011;3665;51.034;13.642;2022-10-16T20:20:00;3.47;;;2.60;;
7247;SDS011;3665;51.034;13.642;2022-10-16T20:25:35;3.43;;;2.47;;
7247;SDS011;3665;51.034;13.642;2022-10-16T20:31:16;2.70;;;2.50;;
7247;SDS011;3665;51.034;13.642;2022-10-16T20:36:37;3.70;;;2.70;;
7247;SDS011;3665;51.034;13.642;2022-10-16T20:47:45;4.67;;;3.00;;
7247;SDS011;3665;51.034;13.642;2022-10-16T20:52:48;2.97;;;2.43;;
7247;SDS011;3665;51.034;13.642;2022-10-16T20:57:37;2.50;;;2.27;;
7247;SDS011;3665;51.034;13.642;2022-10-16T21:07:43;2.57;;;2.20;;
7247;SDS011;3665;51.034;13.642;2022-10-16T21:13:00;1.97;;;1.77;;
7247;SDS011;3665;51.034;13.642;2022-10-16T21:18:07;2.87;;;2.10;;
7247;SDS011;3665;51.034;13.642;2022-10-16T21:23:09;2.90;;;2.10;;
7247;SDS011;3665;51.034;13.642;2022-10-16T21:27:58;4.90;;;2.03;;
7247;SDS011;3665;51.034;13.642;2022-10-16T21:32:45;2.97;;;2.17;;
7247;SDS011;3665;51.034;13.642;2022-10-16T21:37:34;2.63;;;2.20;;
7247;SDS011;3665;51.034;13.642;2022-10-16T21:42:24;2.30;;;2.10;;
7247;SDS011;3665;51.034;13.642;2022-10-16T21:47:09;3.70;;;2.03;;
7247;SDS011;3665;51.034;13.642;2022-10-16T21:51:56;4.37;;;2.20;;
7247;SDS011;3665;51.034;13.642;2022-10-16T21:56:51;3.57;;;2.40;;
7247;SDS011;3665;51.034;13.642;2022-10-16T22:02:04;4.23;;;2.30;;
7247;SDS011;3665;51.034;13.642;2022-10-16T22:06:52;6.60;;;2.37;;
7247;SDS011;3665;51.034;13.642;2022-10-16T22:23:48;2.53;;;1.97;;
7247;SDS011;3665;51.034;13.642;2022-10-16T22:28:44;3.23;;;1.83;;
7247;SDS011;3665;51.034;13.642;2022-10-16T22:33:37;2.00;;;1.70;;
7247;SDS011;3665;51.034;13.642;2022-10-16T22:38:38;2.83;;;2.00;;
7247;SDS011;3665;51.034;13.642;2022-10-16T22:43:25;2.23;;;1.50;;
7247;SDS011;3665;51.034;13.642;2022-10-16T22:48:13;2.37;;;1.77;;
7247;SDS011;3665;51.034;13.642;2022-10-16T22:53:00;1.67;;;1.57;;
7247;SDS011;3665;51.034;13.642;2022-10-16T22:57:53;2.10;;;1.90;;
7247;SDS011;3665;51.034;13.642;2022-10-16T23:02:37;3.33;;;1.70;;
7247;SDS011;3665;51.034;13.642;2022-10-16T23:07:28;1.80;;;1.47;;
7247;SDS011;3665;51.034;13.642;2022-10-16T23:12:37;1.70;;;1.60;;
7247;SDS011;3665;51.034;13.642;2022-10-16T23:17:47;2.73;;;1.90;;
7247;SDS011;3665;51.034;13.642;2022-10-16T23:22:42;1.90;;;1.80;;
7247;SDS011;3665;51.034;13.642;2022-10-16T23:27:45;2.07;;;1.77;;
7247;SDS011;3665;51.034;13.642;2022-10-16T23:32:37;2.90;;;1.50;;
7247;SDS011;3665;51.034;13.642;2022-10-16T23:37:53;2.10;;;1.70;;
7247;SDS011;3665;51.034;13.642;2022-10-16T23:43:00;1.83;;;1.60;;
7247;SDS011;3665;51.034;13.642;2022-10-16T23:48:16;2.33;;;1.60;;
7247;SDS011;3665;51.034;13.642;2022-10-16T23:54:23;2.53;;;1.77;;
7247;SDS011;3665;51.034;13.642;2022-10-16T23:59:12;3.67;;;1.60;;
